createdAt,value
2022-08-02T00:00:08.967Z,4.60
2022-08-02T00:02:35.452Z,4.70
2022-08-02T00:05:02.368Z,4.95
2022-08-02T00:07:29.050Z,5.47
2022-08-02T00:09:55.661Z,4.85
2022-08-02T00:12:22.976Z,5.05
2022-08-02T00:14:49.508Z,4.28
2022-08-02T00:17:16.106Z,4.90
2022-08-02T00:19:42.710Z,4.93
2022-08-02T00:22:09.513Z,4.68
2022-08-02T00:24:36.409Z,4.88
2022-08-02T00:27:03.869Z,5.22
2022-08-02T00:29:36.858Z,5.55
2022-08-02T00:32:17.055Z,5.10
2022-08-02T00:34:43.595Z,5.00
2022-08-02T00:37:10.177Z,4.30
2022-08-02T00:39:36.875Z,5.25
2022-08-02T00:42:03.825Z,5.30
2022-08-02T00:44:30.358Z,4.72
2022-08-02T00:46:56.873Z,5.18
2022-08-02T00:49:23.580Z,4.57
2022-08-02T00:51:51.061Z,5.75
2022-08-02T00:54:18.200Z,4.88
2022-08-02T00:56:50.121Z,5.60
2022-08-02T00:59:17.658Z,4.72
2022-08-02T01:01:56.198Z,5.25
2022-08-02T01:04:30.560Z,5.38
2022-08-02T01:07:03.951Z,5.50
2022-08-02T01:09:39.003Z,4.95
2022-08-02T01:12:06.173Z,4.60
2022-08-02T01:14:32.741Z,5.57
2022-08-02T01:17:28.444Z,5.38
2022-08-02T01:20:26.141Z,5.53
2022-08-02T01:23:05.927Z,4.70
2022-08-02T01:25:57.977Z,5.00
2022-08-02T01:29:01.079Z,5.18
2022-08-02T01:31:33.068Z,4.85
2022-08-02T01:33:59.547Z,5.20
2022-08-02T01:36:27.640Z,5.65
2022-08-02T01:38:54.607Z,5.25
2022-08-02T01:41:24.223Z,5.03
2022-08-02T01:43:54.118Z,5.00
2022-08-02T01:46:21.615Z,5.63
2022-08-02T01:48:49.381Z,4.82
2022-08-02T01:51:17.932Z,5.63
2022-08-02T01:53:48.548Z,5.32
2022-08-02T01:56:16.166Z,5.20
2022-08-02T01:58:43.581Z,5.47
2022-08-02T02:01:15.308Z,4.72
2022-08-02T02:03:45.937Z,5.20
2022-08-02T02:06:12.580Z,4.85
2022-08-02T02:08:40.448Z,6.00
2022-08-02T02:12:13.876Z,5.47
2022-08-02T02:14:14.155Z,5.50
2022-08-02T02:16:42.420Z,6.10
2022-08-02T02:19:09.382Z,6.03
2022-08-02T02:21:37.096Z,5.88
2022-08-02T02:24:04.429Z,5.30
2022-08-02T02:26:37.998Z,5.90
2022-08-02T02:29:11.206Z,5.30
2022-08-02T02:31:43.092Z,5.60
2022-08-02T02:34:13.555Z,5.72
2022-08-02T02:36:42.009Z,5.97
2022-08-02T02:39:13.546Z,5.68
2022-08-02T02:41:41.265Z,5.97
2022-08-02T02:44:10.289Z,5.70
2022-08-02T02:46:36.958Z,6.47
2022-08-02T02:49:04.025Z,5.78
2022-08-02T02:51:30.864Z,5.75
2022-08-02T02:54:31.970Z,6.55
2022-08-02T02:56:45.599Z,6.25
2022-08-02T02:59:13.464Z,6.22
2022-08-02T03:01:55.309Z,6.85
2022-08-02T03:04:24.274Z,6.30
2022-08-02T03:06:50.859Z,6.30
2022-08-02T03:09:17.409Z,6.43
2022-08-02T03:11:44.306Z,6.03
2022-08-02T03:14:12.331Z,7.35
2022-08-02T03:16:43.649Z,6.28
2022-08-02T03:21:36.700Z,6.65
2022-08-02T03:24:03.349Z,6.35
2022-08-02T03:26:29.876Z,6.72
2022-08-02T03:28:56.449Z,6.53
2022-08-02T03:31:23.292Z,7.15
2022-08-02T03:33:50.466Z,6.80
2022-08-02T03:36:19.671Z,6.75
2022-08-02T03:38:46.395Z,7.32
2022-08-02T03:41:14.097Z,7.13
2022-08-02T03:43:41.057Z,7.22
2022-08-02T03:46:08.180Z,6.97
2022-08-02T03:48:35.339Z,6.70
2022-08-02T03:51:02.427Z,7.05
2022-08-02T03:53:29.451Z,6.93
2022-08-02T03:55:56.202Z,7.50
2022-08-02T03:58:23.534Z,7.88
2022-08-02T04:00:52.574Z,7.57
2022-08-02T04:03:20.046Z,8.13
2022-08-02T04:06:03.152Z,8.13
2022-08-02T04:08:37.201Z,7.93
2022-08-02T04:11:23.567Z,7.30
2022-08-02T04:13:50.163Z,7.80
2022-08-02T04:16:21.788Z,7.88
2022-08-02T04:21:26.065Z,7.80
2022-08-02T04:23:53.348Z,7.68
2022-08-02T04:26:26.844Z,7.80
2022-08-02T04:28:55.067Z,8.50
2022-08-02T04:31:22.182Z,8.98
2022-08-02T04:33:49.048Z,9.07
2022-08-02T04:36:15.875Z,9.05
2022-08-02T04:38:58.518Z,10.13
2022-08-02T04:41:40.912Z,8.48
2022-08-02T04:44:11.447Z,9.77
2022-08-02T04:46:38.807Z,9.50
2022-08-02T04:49:05.689Z,9.98
2022-08-02T04:51:37.850Z,10.00
2022-08-02T04:54:09.106Z,9.05
2022-08-02T04:56:39.877Z,9.98
2022-08-02T04:59:08.082Z,8.98
2022-08-02T05:01:35.645Z,9.65
2022-08-02T05:04:02.937Z,9.75
2022-08-02T05:06:29.542Z,10.32
2022-08-02T05:08:56.414Z,11.32
2022-08-02T05:11:34.223Z,10.75
2022-08-02T05:14:01.683Z,10.55
2022-08-02T05:16:30.942Z,10.73
2022-08-02T05:19:02.324Z,11.63
2022-08-02T05:21:29.578Z,12.88
2022-08-02T05:23:56.149Z,12.57
2022-08-02T05:26:22.743Z,13.30
2022-08-02T05:28:49.715Z,12.57
2022-08-02T05:31:16.301Z,12.93
2022-08-02T05:33:42.959Z,13.73
2022-08-02T05:36:09.854Z,13.98
2022-08-02T05:38:37.460Z,14.00
2022-08-02T05:41:05.702Z,14.25
2022-08-02T05:43:32.577Z,13.90
2022-08-02T05:45:59.069Z,12.73
2022-08-02T05:48:31.145Z,13.75
2022-08-02T05:51:12.353Z,15.02
2022-08-02T05:53:51.819Z,13.60
2022-08-02T05:56:26.132Z,13.85
2022-08-02T05:59:12.343Z,14.52
2022-08-02T06:01:40.914Z,16.00
2022-08-02T06:04:09.380Z,14.90
2022-08-02T06:06:36.797Z,15.73
2022-08-02T06:09:27.302Z,14.75
2022-08-02T06:12:11.471Z,14.83
2022-08-02T06:14:39.703Z,14.70
2022-08-02T06:17:06.324Z,14.55
2022-08-02T06:19:51.256Z,14.27
2022-08-02T06:22:34.653Z,13.50
2022-08-02T06:25:04.232Z,13.32
2022-08-02T06:27:31.060Z,13.90
2022-08-02T06:29:57.857Z,13.93
2022-08-02T06:32:27.317Z,12.75
2022-08-02T06:34:54.035Z,12.90
2022-08-02T06:37:30.411Z,15.52
2022-08-02T06:40:29.089Z,18.20
2022-08-02T06:43:05.411Z,18.80
2022-08-02T06:45:33.237Z,20.45
2022-08-02T06:48:00.294Z,21.30
2022-08-02T06:50:27.235Z,19.00
2022-08-02T06:52:53.869Z,18.55
2022-08-02T06:55:20.532Z,15.38
2022-08-02T06:57:47.100Z,13.95
2022-08-02T07:00:14.196Z,13.18
2022-08-02T07:02:40.778Z,15.13
2022-08-02T07:05:08.484Z,15.00
2022-08-02T07:07:35.129Z,15.30
2022-08-02T07:10:02.118Z,14.10
2022-08-02T07:12:30.334Z,12.82
2022-08-02T07:14:57.393Z,15.35
2022-08-02T07:17:23.871Z,13.63
2022-08-02T07:19:50.398Z,12.13
2022-08-02T07:22:18.617Z,13.15
2022-08-02T07:24:45.347Z,12.30
2022-08-02T07:27:12.813Z,12.30
2022-08-02T07:29:46.691Z,10.88
2022-08-02T07:32:18.410Z,9.68
2022-08-02T07:34:51.228Z,9.50
2022-08-02T07:37:53.306Z,9.45
2022-08-02T07:40:13.708Z,7.43
2022-08-02T07:42:42.865Z,6.40
2022-08-02T07:45:10.830Z,6.72
2022-08-02T07:47:38.530Z,6.22
2022-08-02T07:50:06.412Z,5.07
2022-08-02T07:52:32.928Z,4.70
2022-08-02T07:54:59.485Z,4.65
2022-08-02T07:57:26.145Z,5.70
2022-08-02T07:59:52.686Z,4.63
2022-08-02T08:02:19.281Z,5.07
2022-08-02T08:04:45.787Z,4.05
2022-08-02T08:07:12.366Z,4.07
2022-08-02T08:09:42.095Z,4.40
2022-08-02T08:12:10.204Z,4.47
2022-08-02T08:14:37.447Z,4.05
2022-08-02T08:17:04.464Z,3.72
2022-08-02T08:19:50.466Z,4.10
2022-08-02T08:22:17.756Z,3.78
2022-08-02T08:24:44.832Z,4.95
2022-08-02T08:27:14.507Z,3.97
2022-08-02T08:29:42.431Z,3.58
2022-08-02T08:32:14.143Z,3.90
2022-08-02T08:34:43.091Z,3.75
2022-08-02T08:37:09.683Z,4.10
2022-08-02T08:39:57.194Z,3.97
2022-08-02T08:42:29.124Z,4.45
2022-08-02T08:44:57.581Z,3.67
2022-08-02T08:47:35.541Z,3.92
2022-08-02T08:50:10.431Z,3.45
2022-08-02T08:52:50.094Z,3.50
2022-08-02T08:55:17.051Z,4.20
2022-08-02T08:57:44.474Z,3.65
2022-08-02T09:00:16.825Z,3.75
2022-08-02T09:02:44.240Z,4.00
2022-08-02T09:05:12.440Z,3.00
2022-08-02T09:07:39.462Z,3.60
2022-08-02T09:10:36.056Z,3.90
2022-08-02T09:13:38.473Z,3.15
2022-08-02T09:16:12.209Z,3.45
2022-08-02T09:18:47.699Z,2.67
2022-08-02T09:21:16.329Z,3.38
2022-08-02T09:23:49.518Z,2.90
2022-08-02T09:26:18.822Z,2.88
2022-08-02T09:28:47.766Z,3.00
2022-08-02T09:31:16.709Z,3.00
2022-08-02T09:33:44.876Z,3.58
2022-08-02T09:36:16.226Z,2.80
2022-08-02T09:39:01.727Z,3.00
2022-08-02T09:41:30.780Z,3.00
2022-08-02T09:44:05.311Z,2.60
2022-08-02T09:46:43.822Z,2.63
2022-08-02T09:49:13.220Z,3.20
2022-08-02T09:51:49.516Z,2.88
2022-08-02T09:54:27.609Z,2.20
2022-08-02T09:56:57.765Z,1.90
2022-08-02T09:59:25.717Z,2.38
2022-08-02T10:02:01.605Z,2.20
2022-08-02T10:04:30.883Z,2.40
2022-08-02T10:06:59.662Z,2.20
2022-08-02T10:09:28.607Z,2.00
2022-08-02T10:11:55.451Z,2.00
2022-08-02T10:14:23.313Z,1.95
2022-08-02T10:16:50.460Z,2.45
2022-08-02T10:19:17.049Z,2.03
2022-08-02T10:21:50.444Z,2.08
2022-08-02T10:24:21.536Z,1.80
2022-08-02T10:26:48.784Z,1.90
2022-08-02T10:29:17.372Z,2.38
2022-08-02T10:31:57.535Z,2.05
2022-08-02T10:34:31.558Z,2.00
2022-08-02T10:37:04.841Z,2.20
2022-08-02T10:39:49.127Z,2.22
2022-08-02T10:42:47.035Z,1.90
2022-08-02T10:45:18.262Z,2.10
2022-08-02T10:47:57.750Z,2.22
2022-08-02T10:50:46.169Z,1.95
2022-08-02T10:53:26.219Z,1.80
2022-08-02T10:55:54.214Z,1.93
2022-08-02T10:58:26.078Z,1.75
2022-08-02T11:00:53.759Z,1.95
2022-08-02T11:03:29.188Z,2.10
2022-08-02T11:06:25.032Z,1.83
2022-08-02T11:09:33.727Z,2.20
2022-08-02T11:12:01.901Z,2.10
2022-08-02T11:14:28.857Z,1.95
2022-08-02T11:16:55.263Z,2.08
2022-08-02T11:19:28.209Z,1.70
2022-08-02T11:22:10.117Z,1.80
2022-08-02T11:24:38.937Z,2.03
2022-08-02T11:27:09.408Z,1.70
2022-08-02T11:29:38.346Z,2.42
2022-08-02T11:32:08.115Z,1.58
2022-08-02T11:34:37.697Z,1.67
2022-08-02T11:37:04.929Z,1.90
2022-08-02T11:39:31.736Z,1.88
2022-08-02T11:42:00.341Z,1.98
2022-08-02T11:44:28.893Z,3.13
2022-08-02T11:46:56.390Z,1.95
2022-08-02T11:49:23.277Z,2.10
2022-08-02T11:52:05.098Z,1.50
2022-08-02T11:54:42.821Z,1.52
2022-08-02T11:57:10.282Z,1.98
2022-08-02T11:59:41.036Z,1.65
2022-08-02T12:02:08.364Z,1.77
2022-08-02T12:04:35.756Z,1.70
2022-08-02T12:07:04.508Z,1.80
2022-08-02T12:09:39.235Z,1.88
2022-08-02T12:12:07.590Z,1.67
2022-08-02T12:14:43.071Z,2.08
2022-08-02T12:17:28.769Z,1.92
2022-08-02T12:19:56.504Z,1.63
2022-08-02T12:22:27.816Z,2.10
2022-08-02T12:24:57.110Z,2.00
2022-08-02T12:27:31.165Z,1.70
2022-08-02T12:30:08.281Z,2.10
2022-08-02T12:32:35.481Z,1.90
2022-08-02T12:35:05.887Z,1.55
2022-08-02T12:37:32.483Z,1.92
2022-08-02T12:39:59.024Z,1.88
2022-08-02T12:42:25.555Z,1.88
2022-08-02T12:44:53.625Z,1.88
2022-08-02T12:47:21.819Z,1.73
2022-08-02T12:50:18.011Z,1.85
2022-08-02T12:52:47.135Z,1.52
2022-08-02T12:56:00.040Z,1.75
2022-08-02T12:58:13.155Z,1.80
2022-08-02T13:00:40.247Z,1.92
2022-08-02T13:04:08.041Z,1.45
2022-08-02T13:05:57.652Z,1.80
2022-08-02T13:08:27.939Z,1.80
2022-08-02T13:10:54.510Z,1.70
2022-08-02T13:13:21.053Z,1.77
2022-08-02T13:15:50.981Z,1.60
2022-08-02T13:18:18.355Z,1.70
2022-08-02T13:20:45.539Z,1.73
2022-08-02T13:23:21.127Z,1.42
2022-08-02T13:25:52.494Z,1.77
2022-08-02T13:28:19.909Z,1.73
2022-08-02T13:30:47.109Z,1.70
2022-08-02T13:33:14.304Z,1.75
2022-08-02T13:35:41.568Z,1.77
2022-08-02T13:38:08.159Z,1.73
2022-08-02T13:40:49.092Z,1.60
2022-08-02T13:43:21.552Z,2.08
2022-08-02T13:45:48.283Z,1.80
2022-08-02T13:48:16.961Z,1.85
2022-08-02T13:50:45.017Z,1.90
2022-08-02T13:53:11.588Z,2.10
2022-08-02T13:55:39.413Z,1.63
2022-08-02T13:58:09.900Z,1.70
2022-08-02T14:00:36.670Z,1.52
2022-08-02T14:03:05.398Z,1.80
2022-08-02T14:05:47.496Z,1.90
2022-08-02T14:08:17.418Z,1.60
2022-08-02T14:10:45.489Z,1.60
2022-08-02T14:13:12.140Z,1.40
2022-08-02T14:15:38.753Z,1.80
2022-08-02T14:18:05.277Z,1.52
2022-08-02T14:20:31.796Z,1.58
2022-08-02T14:22:58.342Z,1.35
2022-08-02T14:25:26.078Z,1.55
2022-08-02T14:27:52.668Z,1.10
2022-08-02T14:30:19.192Z,1.30
2022-08-02T14:32:45.836Z,1.30
2022-08-02T14:35:12.389Z,1.27
2022-08-02T14:37:39.019Z,1.17
2022-08-02T14:40:06.293Z,1.40
2022-08-02T14:42:53.607Z,1.52
2022-08-02T14:45:22.132Z,1.40
2022-08-02T14:47:49.344Z,1.27
2022-08-02T14:50:17.941Z,1.58
2022-08-02T14:52:45.620Z,1.58
2022-08-02T14:55:17.234Z,1.38
2022-08-02T14:57:43.967Z,1.25
2022-08-02T15:00:11.266Z,1.40
2022-08-02T15:02:37.818Z,1.85
2022-08-02T15:05:04.532Z,1.60
2022-08-02T15:07:31.118Z,1.77
2022-08-02T15:09:57.687Z,1.40
2022-08-02T15:12:24.286Z,1.80
2022-08-02T15:14:50.887Z,1.60
2022-08-02T15:17:17.442Z,1.50
2022-08-02T15:19:57.999Z,1.50
2022-08-02T15:22:27.071Z,1.85
2022-08-02T15:24:55.576Z,1.70
2022-08-02T15:27:22.098Z,1.70
2022-08-02T15:29:48.674Z,1.30
2022-08-02T15:32:19.679Z,1.63
2022-08-02T15:34:47.164Z,1.70
2022-08-02T15:37:13.705Z,1.60
2022-08-02T15:39:40.243Z,1.60
2022-08-02T15:42:06.834Z,1.60
2022-08-02T15:44:33.536Z,1.58
2022-08-02T15:47:00.118Z,1.75
2022-08-02T15:49:27.879Z,1.20
2022-08-02T15:51:54.565Z,1.77
2022-08-02T15:54:21.104Z,1.55
2022-08-02T15:56:47.687Z,1.30
2022-08-02T15:59:14.568Z,1.70
2022-08-02T16:01:46.371Z,1.75
2022-08-02T16:04:14.261Z,1.45
2022-08-02T16:06:40.767Z,1.70
2022-08-02T16:09:07.392Z,1.70
2022-08-02T16:11:33.993Z,1.40
2022-08-02T16:14:00.587Z,1.50
2022-08-02T16:16:30.308Z,1.30
2022-08-02T16:18:57.358Z,1.38
2022-08-02T16:21:24.719Z,1.30
2022-08-02T16:24:01.773Z,1.35
2022-08-02T16:26:31.231Z,1.83
2022-08-02T16:28:59.227Z,1.40
2022-08-02T16:31:25.763Z,1.63
2022-08-02T16:33:56.436Z,1.27
2022-08-02T16:36:24.530Z,1.63
2022-08-02T16:38:51.426Z,1.80
2022-08-02T16:41:18.175Z,1.50
2022-08-02T16:43:44.765Z,1.67
2022-08-02T16:46:11.535Z,1.75
2022-08-02T16:48:38.314Z,1.45
2022-08-02T16:51:05.238Z,1.67
2022-08-02T16:53:59.274Z,1.50
2022-08-02T16:56:28.079Z,1.40
2022-08-02T16:58:55.085Z,1.80
2022-08-02T17:01:27.244Z,1.40
2022-08-02T17:03:56.166Z,1.35
2022-08-02T17:06:26.381Z,1.38
2022-08-02T17:08:56.094Z,1.23
2022-08-02T17:11:23.770Z,1.20
2022-08-02T17:13:51.321Z,1.35
2022-08-02T17:16:20.456Z,1.63
2022-08-02T17:18:53.016Z,1.60
2022-08-02T17:21:19.653Z,1.23
2022-08-02T17:24:02.649Z,1.65
2022-08-02T17:26:32.822Z,1.50
2022-08-02T17:29:17.686Z,1.50
2022-08-02T17:31:49.462Z,1.60
2022-08-02T17:34:32.482Z,1.23
2022-08-02T17:37:00.213Z,1.48
2022-08-02T17:39:33.561Z,1.58
2022-08-02T17:42:02.852Z,1.55
2022-08-02T17:44:37.707Z,1.63
2022-08-02T17:47:08.771Z,1.40
2022-08-02T17:49:44.073Z,1.77
2022-08-02T17:52:50.201Z,1.60
2022-08-02T17:55:03.494Z,1.38
2022-08-02T17:57:55.237Z,1.30
2022-08-02T18:00:17.351Z,1.20
2022-08-02T18:02:44.022Z,1.38
2022-08-02T18:05:19.571Z,1.20
2022-08-02T18:07:51.936Z,1.40
2022-08-02T18:10:22.070Z,1.42
2022-08-02T18:12:50.737Z,1.48
2022-08-02T18:15:20.009Z,1.30
2022-08-02T18:17:46.914Z,1.40
2022-08-02T18:20:13.448Z,1.25
2022-08-02T18:22:43.123Z,1.50
2022-08-02T18:25:11.835Z,1.42
2022-08-02T18:27:58.441Z,1.50
2022-08-02T18:30:28.408Z,1.60
2022-08-02T18:34:00.267Z,1.52
2022-08-02T18:35:58.857Z,1.33
2022-08-02T18:38:27.849Z,1.30
2022-08-02T18:40:54.807Z,1.50
2022-08-02T18:43:25.568Z,1.30
2022-08-02T18:46:07.118Z,1.60
2022-08-02T18:48:44.305Z,1.55
2022-08-02T18:51:13.219Z,1.65
2022-08-02T18:53:42.083Z,1.33
2022-08-02T18:56:10.761Z,1.67
2022-08-02T18:58:48.242Z,1.35
2022-08-02T19:01:32.529Z,1.38
2022-08-02T19:04:04.550Z,1.35
2022-08-02T19:06:31.780Z,1.63
2022-08-02T19:09:06.162Z,1.17
2022-08-02T19:11:41.029Z,1.40
2022-08-02T19:14:08.245Z,1.13
2022-08-02T19:16:37.498Z,1.55
2022-08-02T19:19:07.664Z,1.75
2022-08-02T19:22:26.582Z,1.40
2022-08-02T19:24:21.377Z,1.58
2022-08-02T19:26:51.805Z,1.30
2022-08-02T19:29:42.100Z,1.40
2022-08-02T19:32:40.531Z,1.25
2022-08-02T19:34:58.401Z,1.60
2022-08-02T19:37:37.064Z,1.50
2022-08-02T19:40:07.774Z,1.52
2022-08-02T19:44:20.975Z,1.58
2022-08-02T19:45:48.977Z,1.73
2022-08-02T19:48:14.805Z,1.58
2022-08-02T19:50:44.017Z,1.80
2022-08-02T19:53:17.060Z,1.27
2022-08-02T19:56:00.364Z,2.95
2022-08-02T19:58:29.355Z,1.67
2022-08-02T20:00:57.501Z,1.58
2022-08-02T20:03:52.364Z,1.52
2022-08-02T20:06:10.602Z,1.50
2022-08-02T20:08:39.790Z,1.85
2022-08-02T20:11:18.772Z,1.75
2022-08-02T20:13:47.133Z,1.75
2022-08-02T20:16:27.231Z,1.55
2022-08-02T20:18:57.941Z,1.60
2022-08-02T20:21:35.748Z,1.55
2022-08-02T20:24:09.223Z,1.70
2022-08-02T20:26:39.603Z,2.10
2022-08-02T20:29:14.000Z,1.70
2022-08-02T20:31:40.637Z,1.58
2022-08-02T20:34:07.358Z,1.50
2022-08-02T20:36:33.888Z,1.50
2022-08-02T20:39:00.428Z,2.13
2022-08-02T20:41:36.886Z,1.70
2022-08-02T20:44:16.242Z,1.92
2022-08-02T20:46:57.228Z,1.70
2022-08-02T20:49:40.414Z,1.98
2022-08-02T20:52:23.255Z,2.20
2022-08-02T20:54:55.750Z,1.73
2022-08-02T20:57:48.684Z,1.98
2022-08-02T21:00:09.573Z,2.13
2022-08-02T21:02:36.285Z,1.92
2022-08-02T21:05:07.940Z,1.95
2022-08-02T21:07:47.699Z,1.80
2022-08-02T21:10:20.487Z,2.10
2022-08-02T21:12:51.436Z,2.40
2022-08-02T21:15:17.958Z,1.88
2022-08-02T21:17:51.815Z,2.10
2022-08-02T21:20:27.473Z,1.92
2022-08-02T21:22:56.681Z,1.98
2022-08-02T21:25:23.906Z,1.73
2022-08-02T21:28:09.121Z,2.05
2022-08-02T21:30:44.122Z,2.50
2022-08-02T21:33:23.110Z,2.00
2022-08-02T21:35:50.404Z,2.65
2022-08-02T21:38:36.156Z,2.40
2022-08-02T21:41:05.962Z,2.15
2022-08-02T21:43:39.094Z,1.77
2022-08-02T21:46:06.013Z,1.90
2022-08-02T21:48:32.682Z,2.08
2022-08-02T21:50:59.209Z,2.35
2022-08-02T21:53:42.724Z,2.40
2022-08-02T21:56:09.933Z,2.20
2022-08-02T21:58:36.695Z,2.42
2022-08-02T22:01:03.664Z,2.25
2022-08-02T22:03:31.326Z,2.33
2022-08-02T22:05:58.273Z,1.73
2022-08-02T22:08:24.847Z,2.20
2022-08-02T22:11:03.573Z,2.10
2022-08-02T22:13:38.707Z,2.20
2022-08-02T22:16:14.046Z,2.78
2022-08-02T22:18:40.625Z,2.20
2022-08-02T22:21:16.828Z,2.00
2022-08-02T22:23:50.498Z,2.30
2022-08-02T22:29:04.620Z,2.20
2022-08-02T22:31:40.817Z,2.20
2022-08-02T22:34:11.639Z,2.33
2022-08-02T22:36:53.990Z,2.35
2022-08-02T22:39:20.570Z,2.47
2022-08-02T22:42:05.709Z,2.83
2022-08-02T22:44:34.844Z,2.42
2022-08-02T22:47:06.986Z,2.17
2022-08-02T22:49:37.011Z,2.08
2022-08-02T22:54:32.085Z,2.42
2022-08-02T22:57:00.639Z,2.67
2022-08-02T22:59:04.824Z,2.20
2022-08-02T22:59:39.261Z,2.80
2022-08-02T23:02:07.183Z,2.60
2022-08-02T23:04:33.738Z,2.63
2022-08-02T23:07:00.290Z,2.75
2022-08-02T23:09:27.142Z,2.50
2022-08-02T23:11:54.026Z,2.88
2022-08-02T23:14:20.693Z,2.90
2022-08-02T23:17:05.991Z,2.65
2022-08-02T23:19:50.876Z,2.85
2022-08-02T23:22:29.579Z,2.85
2022-08-02T23:25:00.160Z,2.20
2022-08-02T23:27:27.014Z,3.05
2022-08-02T23:29:53.781Z,2.90
2022-08-02T23:32:22.911Z,2.42
2022-08-02T23:34:52.736Z,2.88
2022-08-02T23:37:19.436Z,2.38
2022-08-02T23:39:46.318Z,2.63
2022-08-02T23:42:13.016Z,2.70
2022-08-02T23:44:39.602Z,3.08
2022-08-02T23:47:06.406Z,2.67
2022-08-02T23:49:32.996Z,2.40
2022-08-02T23:52:01.945Z,2.92
2022-08-02T23:54:29.082Z,2.78
2022-08-02T23:56:55.800Z,2.55
2022-08-02T23:59:22.629Z,3.25
